createdAt,value
2023-02-01T00:00:48.795Z,96972
2023-02-01T00:01:48.728Z,96972
2023-02-01T00:02:48.829Z,96975
2023-02-01T00:03:48.825Z,96975
2023-02-01T00:04:48.798Z,96973
2023-02-01T00:05:48.762Z,96972
2023-02-01T00:06:48.727Z,96968
2023-02-01T00:07:48.777Z,96964
2023-02-01T00:08:48.736Z,96964
2023-02-01T00:09:48.784Z,96964
2023-02-01T00:10:48.793Z,96958
2023-02-01T00:11:48.742Z,96950
2023-02-01T00:12:48.786Z,96954
2023-02-01T00:13:48.803Z,96949
2023-02-01T00:14:48.816Z,96949
2023-02-01T00:15:48.903Z,96945
2023-02-01T00:16:48.756Z,96945
2023-02-01T00:17:48.762Z,96945
2023-02-01T00:19:48.793Z,96944
2023-02-01T00:20:48.857Z,96949
2023-02-01T00:21:48.766Z,96949
2023-02-01T00:22:48.768Z,96944
2023-02-01T00:23:48.784Z,96947
2023-02-01T00:24:48.792Z,96954
2023-02-01T00:26:48.886Z,96951
2023-02-01T00:27:48.772Z,96956
2023-02-01T00:28:48.851Z,96953
2023-02-01T00:29:48.823Z,96955
2023-02-01T00:30:48.843Z,96949
2023-02-01T00:31:48.850Z,96955
2023-02-01T00:32:48.802Z,96954
2023-02-01T00:33:48.797Z,96951
2023-02-01T00:34:48.807Z,96955
2023-02-01T00:35:48.845Z,96947
2023-02-01T00:36:48.836Z,96947
2023-02-01T00:38:48.887Z,96949
2023-02-01T00:39:48.853Z,96946
2023-02-01T00:40:48.824Z,96946
2023-02-01T00:42:48.821Z,96937
2023-02-01T00:43:48.888Z,96938
2023-02-01T00:44:48.873Z,96938
2023-02-01T00:45:48.858Z,96931
2023-02-01T00:46:48.989Z,96930
2023-02-01T00:47:48.865Z,96930
2023-02-01T00:48:49.052Z,96928
2023-02-01T00:49:48.839Z,96928
2023-02-01T00:51:48.838Z,96931
2023-02-01T00:52:48.851Z,96935
2023-02-01T00:53:48.923Z,96931
2023-02-01T00:54:48.843Z,96931
2023-02-01T00:55:48.904Z,96934
2023-02-01T00:56:48.963Z,96931
2023-02-01T00:57:48.886Z,96931
2023-02-01T00:58:48.924Z,96929
2023-02-01T00:59:48.903Z,96928
2023-02-01T01:00:48.864Z,96928
2023-02-01T01:01:48.953Z,96923
2023-02-01T01:02:48.900Z,96923
2023-02-01T01:03:48.905Z,96924
2023-02-01T01:04:48.890Z,96922
2023-02-01T01:05:48.940Z,96923
2023-02-01T01:06:48.912Z,96918
2023-02-01T01:07:48.897Z,96918
2023-02-01T01:08:48.901Z,96918
2023-02-01T01:09:48.883Z,96919
2023-02-01T01:10:48.903Z,96914
2023-02-01T01:11:48.943Z,96909
2023-02-01T01:12:48.937Z,96911
2023-02-01T01:13:48.959Z,96915
2023-02-01T01:14:48.938Z,96911
2023-02-01T01:15:48.985Z,96914
2023-02-01T01:16:48.939Z,96914
2023-02-01T01:17:48.897Z,96910
2023-02-01T01:18:48.905Z,96911
2023-02-01T01:19:48.964Z,96911
2023-02-01T01:20:48.980Z,96909
2023-02-01T01:21:48.970Z,96912
2023-02-01T01:22:48.910Z,96903
2023-02-01T01:23:48.976Z,96908
2023-02-01T01:24:48.985Z,96913
2023-02-01T01:25:48.941Z,96913
2023-02-01T01:26:48.971Z,96910
2023-02-01T01:27:48.971Z,96912
2023-02-01T01:28:48.930Z,96910
2023-02-01T01:29:48.973Z,96912
2023-02-01T01:30:49.028Z,96912
2023-02-01T01:32:48.987Z,96917
2023-02-01T01:33:48.938Z,96914
2023-02-01T01:34:48.969Z,96913
2023-02-01T01:35:48.948Z,96915
2023-02-01T01:37:48.974Z,96909
2023-02-01T01:38:48.955Z,96910
2023-02-01T01:39:49.033Z,96904
2023-02-01T01:40:48.962Z,96904
2023-02-01T01:41:48.953Z,96902
2023-02-01T01:42:48.964Z,96898
2023-02-01T01:43:49.027Z,96898
2023-02-01T01:44:49.043Z,96898
2023-02-01T01:45:48.968Z,96898
2023-02-01T01:46:49.087Z,96901
2023-02-01T01:47:49.012Z,96901
2023-02-01T01:48:49.037Z,96901
2023-02-01T01:49:48.987Z,96897
2023-02-01T01:50:49.049Z,96900
2023-02-01T01:53:49.046Z,96893
2023-02-01T01:54:48.991Z,96892
2023-02-01T01:55:49.086Z,96891
2023-02-01T01:58:49.012Z,96886
2023-02-01T01:59:49.015Z,96886
2023-02-01T02:00:49.109Z,96888
2023-02-01T02:01:49.134Z,96888
2023-02-01T02:02:49.052Z,96888
2023-02-01T02:03:49.058Z,96892
2023-02-01T02:04:49.062Z,96892
2023-02-01T02:05:49.011Z,96894
2023-02-01T02:06:49.230Z,96894
2023-02-01T02:07:49.057Z,96896
2023-02-01T02:08:49.021Z,96902
2023-02-01T02:10:00.182Z,96903
2023-02-01T02:10:49.039Z,96903
2023-02-01T02:11:49.048Z,96903
2023-02-01T02:12:49.094Z,96902
2023-02-01T02:13:49.026Z,96902
2023-02-01T02:14:49.043Z,96901
2023-02-01T02:15:49.048Z,96904
2023-02-01T02:17:49.100Z,96906
2023-02-01T02:18:49.075Z,96906
2023-02-01T02:19:49.064Z,96902
2023-02-01T02:21:49.114Z,96899
2023-02-01T02:22:49.042Z,96897
2023-02-01T02:23:49.081Z,96899
2023-02-01T02:24:49.115Z,96899
2023-02-01T02:27:49.062Z,96896
2023-02-01T02:29:49.133Z,96899
2023-02-01T02:30:49.236Z,96903
2023-02-01T02:31:49.170Z,96904
2023-02-01T02:32:49.096Z,96910
2023-02-01T02:33:49.099Z,96907
2023-02-01T02:34:49.149Z,96907
2023-02-01T02:35:49.127Z,96908
2023-02-01T02:37:49.109Z,96903
2023-02-01T02:38:49.103Z,96903
2023-02-01T02:39:49.107Z,96897
2023-02-01T02:41:49.105Z,96899
2023-02-01T02:42:49.093Z,96903
2023-02-01T02:43:49.120Z,96900
2023-02-01T02:44:49.171Z,96901
2023-02-01T02:45:49.205Z,96899
2023-02-01T02:47:49.178Z,96895
2023-02-01T02:48:49.212Z,96895
2023-02-01T02:50:49.138Z,96897
2023-02-01T02:51:49.125Z,96894
2023-02-01T02:52:49.204Z,96894
2023-02-01T02:53:49.223Z,96889
2023-02-01T02:54:49.160Z,96893
2023-02-01T02:55:49.148Z,96893
2023-02-01T02:56:49.197Z,96895
2023-02-01T02:57:49.202Z,96895
2023-02-01T02:58:49.188Z,96887
2023-02-01T02:59:49.159Z,96897
2023-02-01T03:00:49.231Z,96894
2023-02-01T03:01:49.150Z,96894
2023-02-01T03:02:49.197Z,96891
2023-02-01T03:03:49.213Z,96889
2023-02-01T03:04:49.233Z,96887
2023-02-01T03:06:49.179Z,96890
2023-02-01T03:07:49.170Z,96883
2023-02-01T03:08:49.225Z,96883
2023-02-01T03:09:49.224Z,96891
2023-02-01T03:10:49.195Z,96887
2023-02-01T03:11:49.221Z,96883
2023-02-01T03:12:49.184Z,96883
2023-02-01T03:13:49.198Z,96884
2023-02-01T03:14:49.180Z,96884
2023-02-01T03:15:49.236Z,96884
2023-02-01T03:16:49.302Z,96880
2023-02-01T03:17:49.250Z,96873
2023-02-01T03:18:49.209Z,96872
2023-02-01T03:19:49.272Z,96871
2023-02-01T03:20:49.195Z,96871
2023-02-01T03:21:49.290Z,96873
2023-02-01T03:23:49.257Z,96873
2023-02-01T03:24:49.264Z,96879
2023-02-01T03:25:49.251Z,96879
2023-02-01T03:26:49.271Z,96880
2023-02-01T03:27:49.204Z,96880
2023-02-01T03:28:49.259Z,96889
2023-02-01T03:29:49.260Z,96895
2023-02-01T03:30:49.232Z,96894
2023-02-01T03:32:49.268Z,96892
2023-02-01T03:33:49.236Z,96892
2023-02-01T03:34:49.303Z,96897
2023-02-01T03:35:49.221Z,96897
2023-02-01T03:36:49.269Z,96900
2023-02-01T03:38:49.291Z,96897
2023-02-01T03:39:49.329Z,96900
2023-02-01T03:40:49.284Z,96900
2023-02-01T03:41:49.248Z,96900
2023-02-01T03:42:49.272Z,96901
2023-02-01T03:43:49.319Z,96901
2023-02-01T03:44:49.256Z,96896
2023-02-01T03:45:49.281Z,96899
2023-02-01T03:46:49.272Z,96900
2023-02-01T03:47:49.304Z,96900
2023-02-01T03:48:49.263Z,96897
2023-02-01T03:49:49.295Z,96899
2023-02-01T03:50:49.288Z,96887
2023-02-01T03:51:49.330Z,96887
2023-02-01T03:53:49.315Z,96883
2023-02-01T03:54:49.351Z,96881
2023-02-01T03:55:49.294Z,96882
2023-02-01T03:56:49.283Z,96880
2023-02-01T03:57:49.322Z,96885
2023-02-01T03:58:49.309Z,96883
2023-02-01T03:59:49.335Z,96886
2023-02-01T04:00:49.299Z,96886
2023-02-01T04:01:49.304Z,96880
2023-02-01T04:02:49.346Z,96875
2023-02-01T04:03:49.319Z,96870
2023-02-01T04:04:49.324Z,96868
2023-02-01T04:06:49.385Z,96868
2023-02-01T04:07:49.351Z,96871
2023-02-01T04:08:49.359Z,96871
2023-02-01T04:09:49.347Z,96877
2023-02-01T04:10:49.374Z,96877
2023-02-01T04:11:49.330Z,96877
2023-02-01T04:12:49.335Z,96884
2023-02-01T04:13:49.359Z,96891
2023-02-01T04:14:49.350Z,96895
2023-02-01T04:15:49.418Z,96898
2023-02-01T04:16:49.455Z,96905
2023-02-01T04:19:49.350Z,96902
2023-02-01T04:20:49.351Z,96905
2023-02-01T04:21:49.385Z,96903
2023-02-01T04:22:49.385Z,96900
2023-02-01T04:23:49.435Z,96909
2023-02-01T04:24:49.409Z,96909
2023-02-01T04:25:49.397Z,96905
2023-02-01T04:26:49.441Z,96908
2023-02-01T04:27:49.367Z,96908
2023-02-01T04:28:49.394Z,96914
2023-02-01T04:29:49.401Z,96914
2023-02-01T04:30:49.471Z,96915
2023-02-01T04:31:49.439Z,96920
2023-02-01T04:32:49.405Z,96921
2023-02-01T04:33:49.420Z,96919
2023-02-01T04:34:49.368Z,96921
2023-02-01T04:35:49.376Z,96920
2023-02-01T04:36:49.466Z,96916
2023-02-01T04:37:49.426Z,96911
2023-02-01T04:38:49.384Z,96911
2023-02-01T04:40:49.426Z,96912
2023-02-01T04:41:49.485Z,96918
2023-02-01T04:42:49.440Z,96918
2023-02-01T04:43:49.435Z,96926
2023-02-01T04:44:49.393Z,96927
2023-02-01T04:45:49.561Z,96927
2023-02-01T04:46:49.426Z,96927
2023-02-01T04:47:49.450Z,96932
2023-02-01T04:48:49.467Z,96942
2023-02-01T04:49:49.456Z,96944
2023-02-01T04:50:49.487Z,96944
2023-02-01T04:51:49.410Z,96949
2023-02-01T04:52:49.418Z,96950
2023-02-01T04:53:49.455Z,96951
2023-02-01T04:54:49.456Z,96958
2023-02-01T04:55:49.472Z,96960
2023-02-01T04:56:49.431Z,96961
2023-02-01T04:57:49.463Z,96962
2023-02-01T04:58:49.489Z,96962
2023-02-01T04:59:49.498Z,96962
2023-02-01T05:00:49.445Z,96964
2023-02-01T05:02:49.489Z,96965
2023-02-01T05:05:49.533Z,96970
2023-02-01T05:06:49.504Z,96970
2023-02-01T05:09:49.478Z,96967
2023-02-01T05:10:49.483Z,96966
2023-02-01T05:11:49.516Z,96966
2023-02-01T05:12:49.488Z,96958
2023-02-01T05:14:49.492Z,96963
2023-02-01T05:15:49.575Z,96963
2023-02-01T05:16:49.473Z,96964
2023-02-01T05:17:49.480Z,96967
2023-02-01T05:18:49.494Z,96964
2023-02-01T05:19:49.522Z,96965
2023-02-01T05:20:49.492Z,96966
2023-02-01T05:21:49.482Z,96966
2023-02-01T05:22:49.499Z,96963
2023-02-01T05:23:49.550Z,96957
2023-02-01T05:25:49.531Z,96958
2023-02-01T05:26:49.656Z,96950
2023-02-01T05:27:49.561Z,96942
2023-02-01T05:28:49.547Z,96937
2023-02-01T05:30:49.655Z,96936
2023-02-01T05:32:49.514Z,96933
2023-02-01T05:34:49.623Z,96937
2023-02-01T05:35:49.574Z,96937
2023-02-01T05:36:49.574Z,96934
2023-02-01T05:37:49.575Z,96933
2023-02-01T05:38:49.567Z,96936
2023-02-01T05:39:49.622Z,96929
2023-02-01T05:40:49.583Z,96932
2023-02-01T05:41:49.570Z,96930
2023-02-01T05:42:49.573Z,96928
2023-02-01T05:43:49.536Z,96927
2023-02-01T05:44:49.608Z,96928
2023-02-01T05:45:49.556Z,96930
2023-02-01T05:46:50.278Z,96930
2023-02-01T05:47:49.591Z,96937
2023-02-01T05:48:49.595Z,96941
2023-02-01T05:49:49.600Z,96940
2023-02-01T05:50:49.562Z,96946
2023-02-01T05:51:49.575Z,96943
2023-02-01T05:52:49.631Z,96941
2023-02-01T05:53:49.596Z,96942
2023-02-01T05:54:49.604Z,96942
2023-02-01T05:55:49.600Z,96946
2023-02-01T05:56:49.607Z,96954
2023-02-01T05:57:49.655Z,96954
2023-02-01T05:58:49.614Z,96954
2023-02-01T06:01:49.627Z,96955
2023-02-01T06:02:49.700Z,96961
2023-02-01T06:03:49.701Z,96961
2023-02-01T06:04:49.602Z,96962
2023-02-01T06:05:49.672Z,96970
2023-02-01T06:07:49.635Z,96970
2023-02-01T06:08:49.634Z,96971
2023-02-01T06:09:49.652Z,96971
2023-02-01T06:10:49.688Z,96966
2023-02-01T06:11:49.611Z,96966
2023-02-01T06:12:49.650Z,96964
2023-02-01T06:13:49.632Z,96959
2023-02-01T06:14:49.621Z,96950
2023-02-01T06:15:49.709Z,96953
2023-02-01T06:16:49.649Z,96951
2023-02-01T06:17:49.668Z,96950
2023-02-01T06:18:49.664Z,96941
2023-02-01T06:19:49.675Z,96943
2023-02-01T06:20:49.696Z,96942
2023-02-01T06:21:49.674Z,96943
2023-02-01T06:22:49.659Z,96946
2023-02-01T06:23:49.658Z,96953
2023-02-01T06:24:49.667Z,96953
2023-02-01T06:25:49.715Z,96956
2023-02-01T06:26:49.729Z,96956
2023-02-01T06:27:49.660Z,96956
2023-02-01T06:28:49.694Z,96948
2023-02-01T06:29:49.673Z,96948
2023-02-01T06:30:49.809Z,96951
2023-02-01T06:31:49.750Z,96951
2023-02-01T06:32:49.704Z,96951
2023-02-01T06:34:49.752Z,96948
2023-02-01T06:35:49.652Z,96948
2023-02-01T06:36:49.665Z,96947
2023-02-01T06:37:49.674Z,96948
2023-02-01T06:38:49.717Z,96951
2023-02-01T06:39:49.665Z,96951
2023-02-01T06:40:49.687Z,96959
2023-02-01T06:41:49.664Z,96959
2023-02-01T06:42:49.684Z,96966
2023-02-01T06:43:49.763Z,96974
2023-02-01T06:44:49.719Z,96971
2023-02-01T06:45:49.720Z,96971
2023-02-01T06:46:49.779Z,96976
2023-02-01T06:47:49.739Z,96966
2023-02-01T06:48:49.736Z,96964
2023-02-01T06:49:49.697Z,96962
2023-02-01T06:50:49.771Z,96962
2023-02-01T06:51:49.740Z,96963
2023-02-01T06:52:49.780Z,96964
2023-02-01T06:53:49.749Z,96962
2023-02-01T06:54:49.762Z,96961
2023-02-01T06:55:49.744Z,96961
2023-02-01T06:56:49.754Z,96969
2023-02-01T06:57:49.824Z,96966
2023-02-01T06:58:49.792Z,96972
2023-02-01T06:59:49.726Z,96972
2023-02-01T07:00:49.790Z,96972
2023-02-01T07:01:49.752Z,96972
2023-02-01T07:02:49.738Z,96980
2023-02-01T07:03:49.850Z,96986
2023-02-01T07:04:49.735Z,96990
2023-02-01T07:05:49.788Z,96995
2023-02-01T07:06:49.798Z,97003
2023-02-01T07:07:49.736Z,97004
2023-02-01T07:08:49.793Z,97011
2023-02-01T07:09:49.779Z,97016
2023-02-01T07:10:49.813Z,97018
2023-02-01T07:11:49.793Z,97017
2023-02-01T07:12:49.772Z,97026
2023-02-01T07:13:49.798Z,97026
2023-02-01T07:14:49.809Z,97029
2023-02-01T07:15:49.956Z,97035
2023-02-01T07:17:49.800Z,97038
2023-02-01T07:19:49.802Z,97050
2023-02-01T07:20:49.813Z,97047
2023-02-01T07:21:49.858Z,97051
2023-02-01T07:22:49.812Z,97056
2023-02-01T07:23:49.780Z,97059
2023-02-01T07:24:49.849Z,97059
2023-02-01T07:25:49.832Z,97057
2023-02-01T07:27:49.874Z,97057
2023-02-01T07:28:49.819Z,97060
2023-02-01T07:31:49.842Z,97059
2023-02-01T07:32:49.974Z,97060
2023-02-01T07:33:49.845Z,97060
2023-02-01T07:35:49.824Z,97062
2023-02-01T07:36:49.816Z,97069
2023-02-01T07:38:49.916Z,97068
2023-02-01T07:39:49.837Z,97068
2023-02-01T07:40:49.857Z,97070
2023-02-01T07:42:49.878Z,97067
2023-02-01T07:44:50.042Z,97068
2023-02-01T07:45:49.946Z,97066
2023-02-01T07:46:49.858Z,97066
2023-02-01T07:47:49.915Z,97063
2023-02-01T07:48:49.842Z,97063
2023-02-01T07:50:50.018Z,97066
2023-02-01T07:51:49.856Z,97068
2023-02-01T07:52:49.890Z,97068
2023-02-01T07:53:49.911Z,97060
2023-02-01T07:55:49.939Z,97049
2023-02-01T07:56:49.934Z,97048
2023-02-01T07:57:49.924Z,97048
2023-02-01T07:58:49.888Z,97051
2023-02-01T07:59:49.887Z,97050
2023-02-01T08:00:49.928Z,97051
2023-02-01T08:01:50.074Z,97051
2023-02-01T08:02:49.938Z,97051
2023-02-01T08:03:49.936Z,97052
2023-02-01T08:04:49.933Z,97052
2023-02-01T08:05:49.932Z,97054
2023-02-01T08:06:49.946Z,97050
2023-02-01T08:07:49.969Z,97046
2023-02-01T08:08:49.930Z,97042
2023-02-01T08:09:49.939Z,97042
2023-02-01T08:10:49.945Z,97050
2023-02-01T08:11:49.892Z,97050
2023-02-01T08:12:49.914Z,97053
2023-02-01T08:13:50.012Z,97055
2023-02-01T08:15:49.908Z,97056
2023-02-01T08:16:49.992Z,97054
2023-02-01T08:17:49.920Z,97054
2023-02-01T08:18:49.918Z,97049
2023-02-01T08:19:49.962Z,97050
2023-02-01T08:20:49.990Z,97044
2023-02-01T08:21:49.996Z,97040
2023-02-01T08:22:49.970Z,97039
2023-02-01T08:23:49.987Z,97042
2023-02-01T08:24:49.941Z,97042
2023-02-01T08:25:49.979Z,97040
2023-02-01T08:26:50.050Z,97036
2023-02-01T08:27:49.949Z,97042
2023-02-01T08:28:49.992Z,97042
2023-02-01T08:29:49.957Z,97036
2023-02-01T08:30:50.002Z,97036
2023-02-01T08:31:50.061Z,97031
2023-02-01T08:32:49.964Z,97038
2023-02-01T08:33:50.019Z,97037
2023-02-01T08:35:50.000Z,97037
2023-02-01T08:36:49.971Z,97040
2023-02-01T08:37:50.079Z,97040
2023-02-01T08:38:49.965Z,97038
2023-02-01T08:39:50.007Z,97042
2023-02-01T08:40:50.016Z,97043
2023-02-01T08:41:50.028Z,97043
2023-02-01T08:42:50.011Z,97048
2023-02-01T08:43:50.035Z,97050
2023-02-01T08:44:50.014Z,97050
2023-02-01T08:45:50.025Z,97049
2023-02-01T08:46:50.085Z,97053
2023-02-01T08:47:50.005Z,97057
2023-02-01T08:48:50.038Z,97054
2023-02-01T08:49:50.027Z,97057
2023-02-01T08:50:50.049Z,97056
2023-02-01T08:51:50.200Z,97053
2023-02-01T08:52:50.025Z,97053
2023-02-01T08:53:50.047Z,97051
2023-02-01T08:54:50.045Z,97047
2023-02-01T08:55:50.005Z,97045
2023-02-01T08:56:50.113Z,97042
2023-02-01T08:57:50.068Z,97041
2023-02-01T08:59:50.016Z,97033
2023-02-01T09:00:50.006Z,97034
2023-02-01T09:01:50.109Z,97033
2023-02-01T09:02:50.046Z,97030
2023-02-01T09:03:50.116Z,97030
2023-02-01T09:04:50.083Z,97035
2023-02-01T09:06:50.131Z,97041
2023-02-01T09:07:50.058Z,97036
2023-02-01T09:09:50.049Z,97036
2023-02-01T09:10:50.093Z,97032
2023-02-01T09:11:50.117Z,97036
2023-02-01T09:12:50.127Z,97032
2023-02-01T09:13:50.077Z,97030
2023-02-01T09:14:50.125Z,97030
2023-02-01T09:15:51.144Z,97028
2023-02-01T09:16:50.142Z,97026
2023-02-01T09:17:50.119Z,97028
2023-02-01T09:18:56.709Z,97026
2023-02-01T09:20:50.066Z,97035
2023-02-01T09:21:50.086Z,97029
2023-02-01T09:22:50.077Z,97031
2023-02-01T09:23:50.124Z,97034
2023-02-01T09:24:50.228Z,97032
2023-02-01T09:25:50.127Z,97032
2023-02-01T09:26:50.131Z,97038
2023-02-01T09:27:50.128Z,97038
2023-02-01T09:28:50.137Z,97043
2023-02-01T09:32:02.912Z,97053
2023-02-01T09:32:50.161Z,97053
2023-02-01T09:33:50.104Z,97055
2023-02-01T09:34:50.148Z,97060
2023-02-01T09:35:50.147Z,97058
2023-02-01T09:36:50.150Z,97062
2023-02-01T09:37:50.161Z,97061
2023-02-01T09:38:53.171Z,97056
2023-02-01T09:39:50.109Z,97066
2023-02-01T09:40:50.151Z,97066
2023-02-01T09:41:50.174Z,97066
2023-02-01T09:42:50.132Z,97069
2023-02-01T09:43:50.177Z,97070
2023-02-01T09:44:50.181Z,97060
2023-02-01T09:45:50.222Z,97060
2023-02-01T09:46:50.171Z,97063
2023-02-01T09:47:50.196Z,97061
2023-02-01T09:48:50.173Z,97058
2023-02-01T09:49:50.217Z,97060
2023-02-01T09:50:50.176Z,97055
2023-02-01T09:51:50.181Z,97055
2023-02-01T09:52:50.146Z,97065
2023-02-01T09:53:50.179Z,97065
2023-02-01T09:54:50.186Z,97068
2023-02-01T09:55:50.182Z,97068
2023-02-01T09:56:50.189Z,97068
2023-02-01T09:57:50.228Z,97077
2023-02-01T09:58:50.199Z,97077
2023-02-01T09:59:50.200Z,97071
2023-02-01T10:00:50.171Z,97068
2023-02-01T10:01:50.270Z,97069
2023-02-01T10:02:50.254Z,97068
2023-02-01T10:03:50.270Z,97056
2023-02-01T10:04:50.197Z,97055
2023-02-01T10:05:50.227Z,97051
2023-02-01T10:06:50.228Z,97052
2023-02-01T10:07:50.249Z,97063
2023-02-01T10:08:50.234Z,97063
2023-02-01T10:09:50.241Z,97060
2023-02-01T10:10:50.236Z,97065
2023-02-01T10:11:50.201Z,97065
2023-02-01T10:12:50.274Z,97064
2023-02-01T10:13:50.200Z,97065
2023-02-01T10:14:50.230Z,97061
2023-02-01T10:15:50.444Z,97058
2023-02-01T10:16:50.388Z,97058
2023-02-01T10:17:50.303Z,97052
2023-02-01T10:18:50.244Z,97052
2023-02-01T10:20:50.252Z,97041
2023-02-01T10:21:50.247Z,97033
2023-02-01T10:23:13.660Z,97039
2023-02-01T10:23:50.259Z,97047
2023-02-01T10:24:50.236Z,97041
2023-02-01T10:25:50.349Z,97037
2023-02-01T10:26:50.299Z,97038
2023-02-01T10:27:50.233Z,97037
2023-02-01T10:28:50.282Z,97042
2023-02-01T10:29:50.264Z,97039
2023-02-01T10:30:50.419Z,97034
2023-02-01T10:31:50.410Z,97028
2023-02-01T10:32:50.244Z,97021
2023-02-01T10:33:50.271Z,97015
2023-02-01T10:34:50.278Z,97015
2023-02-01T10:35:50.327Z,97003
2023-02-01T10:36:50.294Z,97002
2023-02-01T10:37:50.257Z,97002
2023-02-01T10:38:50.252Z,97007
2023-02-01T10:39:50.262Z,97007
2023-02-01T10:40:50.336Z,97007
2023-02-01T10:41:50.295Z,97007
2023-02-01T10:42:50.300Z,97008
2023-02-01T10:43:50.306Z,97011
2023-02-01T10:44:50.326Z,97012
2023-02-01T10:45:50.301Z,97017
2023-02-01T10:46:50.279Z,97028
2023-02-01T10:47:50.301Z,97028
2023-02-01T10:48:50.305Z,97033
2023-02-01T10:49:50.298Z,97027
2023-02-01T10:50:50.303Z,97023
2023-02-01T10:51:50.346Z,97018
2023-02-01T10:52:50.281Z,97015
2023-02-01T10:53:50.359Z,97015
2023-02-01T10:54:50.375Z,97016
2023-02-01T10:55:50.343Z,97017
2023-02-01T10:56:50.383Z,97012
2023-02-01T10:57:50.306Z,97007
2023-02-01T10:58:50.372Z,97005
2023-02-01T10:59:50.353Z,97011
2023-02-01T11:01:50.534Z,97016
2023-02-01T11:02:50.342Z,97005
2023-02-01T11:03:50.362Z,97006
2023-02-01T11:04:50.337Z,97002
2023-02-01T11:05:50.322Z,97011
2023-02-01T11:06:50.349Z,97000
2023-02-01T11:07:50.343Z,97005
2023-02-01T11:08:50.323Z,97000
2023-02-01T11:09:50.410Z,97010
2023-02-01T11:10:50.344Z,96993
2023-02-01T11:11:50.339Z,97000
2023-02-01T11:12:50.382Z,97001
2023-02-01T11:13:50.341Z,97001
2023-02-01T11:14:50.374Z,96992
2023-02-01T11:15:50.368Z,96982
2023-02-01T11:16:50.348Z,96982
2023-02-01T11:17:50.463Z,96979
2023-02-01T11:19:50.412Z,96972
2023-02-01T11:20:50.457Z,96977
2023-02-01T11:21:50.393Z,96983
2023-02-01T11:22:50.369Z,96978
2023-02-01T11:23:50.363Z,96974
2023-02-01T11:24:50.371Z,96971
2023-02-01T11:25:50.365Z,96971
2023-02-01T11:26:50.444Z,96979
2023-02-01T11:27:55.216Z,96965
2023-02-01T11:28:50.364Z,96965
2023-02-01T11:29:50.413Z,96962
2023-02-01T11:31:50.519Z,96967
2023-02-01T11:32:50.473Z,96969
2023-02-01T11:33:50.388Z,96963
2023-02-01T11:34:50.416Z,96963
2023-02-01T11:35:50.419Z,96964
2023-02-01T11:36:50.440Z,96969
2023-02-01T11:37:50.477Z,96971
2023-02-01T11:38:50.404Z,96964
2023-02-01T11:39:50.415Z,96966
2023-02-01T11:40:50.397Z,96966
2023-02-01T11:41:50.427Z,96978
2023-02-01T11:42:50.488Z,96968
2023-02-01T11:43:50.464Z,96975
2023-02-01T11:44:50.454Z,96968
2023-02-01T11:45:50.464Z,96962
2023-02-01T11:46:50.503Z,96964
2023-02-01T11:47:50.494Z,96961
2023-02-01T11:48:50.462Z,96961
2023-02-01T11:49:50.502Z,96967
2023-02-01T11:50:50.476Z,96963
2023-02-01T11:51:50.465Z,96969
2023-02-01T11:52:51.657Z,96958
2023-02-01T11:53:50.445Z,96959
2023-02-01T11:54:50.495Z,96956
2023-02-01T11:55:50.525Z,96955
2023-02-01T11:56:50.499Z,96953
2023-02-01T11:57:50.480Z,96953
2023-02-01T11:58:50.447Z,96951
2023-02-01T11:59:56.429Z,96936
2023-02-01T12:00:50.507Z,96957
2023-02-01T12:01:50.587Z,96938
2023-02-01T12:02:50.531Z,96935
2023-02-01T12:03:50.499Z,96932
2023-02-01T12:04:50.497Z,96933
2023-02-01T12:05:50.499Z,96934
2023-02-01T12:06:50.549Z,96941
2023-02-01T12:07:50.517Z,96946
2023-02-01T12:08:50.525Z,96946
2023-02-01T12:09:50.478Z,96946
2023-02-01T12:10:50.499Z,96944
2023-02-01T12:11:50.507Z,96943
2023-02-01T12:12:50.520Z,96945
2023-02-01T12:13:50.529Z,96942
2023-02-01T12:14:50.495Z,96942
2023-02-01T12:15:50.529Z,96936
2023-02-01T12:16:50.587Z,96936
2023-02-01T12:17:50.509Z,96928
2023-02-01T12:20:50.535Z,96923
2023-02-01T12:21:50.519Z,96923
2023-02-01T12:22:50.526Z,96909
2023-02-01T12:23:50.548Z,96905
2023-02-01T12:24:50.544Z,96906
2023-02-01T12:25:50.505Z,96906
2023-02-01T12:26:50.606Z,96909
2023-02-01T12:27:50.512Z,96905
2023-02-01T12:28:50.540Z,96901
2023-02-01T12:29:50.519Z,96901
2023-02-01T12:30:50.608Z,96895
2023-02-01T12:31:50.627Z,96890
2023-02-01T12:32:50.548Z,96899
2023-02-01T12:33:50.605Z,96899
2023-02-01T12:34:50.540Z,96895
2023-02-01T12:35:50.529Z,96901
2023-02-01T12:36:50.548Z,96896
2023-02-01T12:37:50.588Z,96903
2023-02-01T12:38:50.546Z,96898
2023-02-01T12:39:50.597Z,96902
2023-02-01T12:40:50.605Z,96903
2023-02-01T12:41:50.587Z,96903
2023-02-01T12:42:50.593Z,96899
2023-02-01T12:43:50.589Z,96902
2023-02-01T12:44:50.676Z,96896
2023-02-01T12:45:50.647Z,96900
2023-02-01T12:46:50.595Z,96898
2023-02-01T12:47:50.560Z,96898
2023-02-01T12:48:50.568Z,96903
2023-02-01T12:49:50.644Z,96900
2023-02-01T12:50:50.637Z,96908
2023-02-01T12:51:50.645Z,96906
2023-02-01T12:52:50.630Z,96906
2023-02-01T12:53:50.623Z,96899
2023-02-01T12:54:50.704Z,96908
2023-02-01T12:55:51.603Z,96904
2023-02-01T12:56:50.589Z,96894
2023-02-01T12:58:50.638Z,96898
2023-02-01T12:59:50.629Z,96898
2023-02-01T13:00:50.713Z,96888
2023-02-01T13:01:50.639Z,96882
2023-02-01T13:02:50.639Z,96894
2023-02-01T13:03:50.650Z,96890
2023-02-01T13:04:50.620Z,96890
2023-02-01T13:05:50.652Z,96892
2023-02-01T13:06:50.744Z,96890
2023-02-01T13:07:50.616Z,96885
2023-02-01T13:08:50.656Z,96885
2023-02-01T13:09:50.695Z,96889
2023-02-01T13:10:50.637Z,96883
2023-02-01T13:11:50.675Z,96895
2023-02-01T13:12:50.643Z,96881
2023-02-01T13:13:50.688Z,96882
2023-02-01T13:14:50.701Z,96886
2023-02-01T13:17:50.666Z,96885
2023-02-01T13:18:50.652Z,96885
2023-02-01T13:19:50.721Z,96873
2023-02-01T13:20:50.707Z,96879
2023-02-01T13:21:50.692Z,96863
2023-02-01T13:22:50.700Z,96874
2023-02-01T13:23:50.703Z,96874
2023-02-01T13:24:50.848Z,96871
2023-02-01T13:25:50.693Z,96871
2023-02-01T13:26:50.748Z,96874
2023-02-01T13:27:50.665Z,96868
2023-02-01T13:28:50.735Z,96870
2023-02-01T13:29:50.663Z,96870
2023-02-01T13:30:50.861Z,96859
2023-02-01T13:31:50.827Z,96863
2023-02-01T13:32:54.828Z,96867
2023-02-01T13:33:56.497Z,96862
2023-02-01T13:34:50.723Z,96867
2023-02-01T13:35:50.722Z,96867
2023-02-01T13:36:50.730Z,96861
2023-02-01T13:37:50.741Z,96867
2023-02-01T13:38:50.691Z,96867
2023-02-01T13:39:50.768Z,96861
2023-02-01T13:40:50.754Z,96861
2023-02-01T13:42:50.747Z,96858
2023-02-01T13:43:50.752Z,96853
2023-02-01T13:44:50.709Z,96853
2023-02-01T13:45:50.771Z,96859
2023-02-01T13:46:52.469Z,96864
2023-02-01T13:47:50.753Z,96857
2023-02-01T13:48:50.714Z,96855
2023-02-01T13:49:50.754Z,96860
2023-02-01T13:50:50.779Z,96857
2023-02-01T13:51:50.727Z,96857
2023-02-01T13:52:50.805Z,96869
2023-02-01T13:53:50.915Z,96868
2023-02-01T13:54:50.763Z,96867
2023-02-01T13:55:50.751Z,96866
2023-02-01T13:56:50.767Z,96866
2023-02-01T13:57:50.780Z,96868
2023-02-01T13:58:50.741Z,96870
2023-02-01T13:59:50.766Z,96873
2023-02-01T14:00:50.789Z,96868
2023-02-01T14:01:50.786Z,96871
2023-02-01T14:02:50.792Z,96874
2023-02-01T14:03:50.781Z,96871
2023-02-01T14:04:50.773Z,96871